South Queensferry, United Kingdom
Current Conditions -  °F | °C
As of 2:50 AM on Monday 22 Dec 2014 (Local Time) from EGPH Reporting Station
Light Rain Light Rain  
Wind Chill: 50°   Ceiling: Unl
Heat Index: 50°   Visibility: 6mi
Dew Point: 46°   Wind: 16mph
Humidity: 87%   Direction: 260°W
Pressure: 29.56"   Gusts: NA
Location:  55.99°N, 3.39°W
Report Text: EGPH 220250Z 26014KT 230V320 9999 -RA FEW015TCU 10/08 Q1001
Loading
Personal Weather Stations






























Interactive Weather Map New forecast layout! Learn more

10-Day Weather Forecast

Advertisements
Track Severe Weather on mobile